sensor_id;sensor_type;location;lat;lon;timestamp;pressure;altitude;pressure_sealevel;temperature;humidity
3524;BME280;1776;53.330;11.498;2024-02-21T00:00:19;22121.53;;;-147.39;96.08
3524;BME280;1776;53.330;11.498;2024-02-21T00:02:44;22158.13;;;-147.39;96.35
3524;BME280;1776;53.330;11.498;2024-02-21T00:05:10;22113.41;;;-147.39;96.61
3524;BME280;1776;53.330;11.498;2024-02-21T00:07:35;22078.84;;;-147.39;96.76
3524;BME280;1776;53.330;11.498;2024-02-21T00:10:00;22066.66;;;-147.39;97.38
3524;BME280;1776;53.330;11.498;2024-02-21T00:12:26;22021.97;;;-147.39;97.83
3524;BME280;1776;53.330;11.498;2024-02-21T00:14:51;21979.28;;;-147.39;98.67
3524;BME280;1776;53.330;11.498;2024-02-21T00:17:16;21956.94;;;-147.39;98.98
3524;BME280;1776;53.330;11.498;2024-02-21T00:19:42;21954.91;;;-147.39;99.32
3524;BME280;1776;53.330;11.498;2024-02-21T00:22:07;21950.84;;;-147.39;99.68
3524;BME280;1776;53.330;11.498;2024-02-21T00:24:33;21930.50;;;-147.39;99.94
3524;BME280;1776;53.330;11.498;2024-02-21T00:26:58;21940.66;;;-147.39;100.00
3524;BME280;1776;53.330;11.498;2024-02-21T00:29:23;21914.25;;;-147.39;100.00
3524;BME280;1776;53.330;11.498;2024-02-21T00:31:49;21859.38;;;-147.39;100.00
3524;BME280;1776;53.330;11.498;2024-02-21T00:34:14;21871.59;;;-147.39;100.00
3524;BME280;1776;53.330;11.498;2024-02-21T00:36:40;21835.00;;;-147.39;100.00
3524;BME280;1776;53.330;11.498;2024-02-21T00:39:05;21818.75;;;-147.39;100.00
3524;BME280;1776;53.330;11.498;2024-02-21T00:41:31;21873.63;;;-147.39;100.00
3524;BME280;1776;53.330;11.498;2024-02-21T00:43:56;21798.44;;;-147.39;100.00
3524;BME280;1776;53.330;11.498;2024-02-21T00:46:22;21810.63;;;-147.39;100.00
3524;BME280;1776;53.330;11.498;2024-02-21T00:48:47;21743.56;;;-147.39;100.00
3524;BME280;1776;53.330;11.498;2024-02-21T00:51:13;21753.72;;;-147.39;100.00
3524;BME280;1776;53.330;11.498;2024-02-21T00:53:38;21741.53;;;-147.39;100.00
3524;BME280;1776;53.330;11.498;2024-02-21T00:56:05;21723.25;;;-147.39;100.00
3524;BME280;1776;53.330;11.498;2024-02-21T00:58:30;21674.47;;;-147.39;100.00
3524;BME280;1776;53.330;11.498;2024-02-21T01:00:56;21668.38;;;-147.39;100.00
3524;BME280;1776;53.330;11.498;2024-02-21T01:03:21;21658.22;;;-147.39;100.00
3524;BME280;1776;53.330;11.498;2024-02-21T01:05:46;21686.66;;;-147.39;100.00
3524;BME280;1776;53.330;11.498;2024-02-21T01:08:11;21641.97;;;-147.39;100.00
3524;BME280;1776;53.330;11.498;2024-02-21T01:10:37;21595.22;;;-147.39;100.00
3524;BME280;1776;53.330;11.498;2024-02-21T01:13:02;21605.38;;;-147.39;100.00
3524;BME280;1776;53.330;11.498;2024-02-21T01:15:27;21599.28;;;-147.39;100.00
3524;BME280;1776;53.330;11.498;2024-02-21T01:17:53;21607.41;;;-147.39;100.00
3524;BME280;1776;53.330;11.498;2024-02-21T01:20:20;21572.88;;;-147.39;100.00
3524;BME280;1776;53.330;11.498;2024-02-21T01:22:46;21558.66;;;-147.39;100.00
3524;BME280;1776;53.330;11.498;2024-02-21T01:25:11;21574.91;;;-147.39;100.00
3524;BME280;1776;53.330;11.498;2024-02-21T01:27:36;21556.63;;;-147.39;100.00
3524;BME280;1776;53.330;11.498;2024-02-21T01:30:01;21546.47;;;-147.39;100.00
3524;BME280;1776;53.330;11.498;2024-02-21T01:32:27;21524.09;;;-147.39;100.00
3524;BME280;1776;53.330;11.498;2024-02-21T01:34:52;21509.88;;;-147.39;100.00
3524;BME280;1776;53.330;11.498;2024-02-21T01:37:17;21528.16;;;-147.39;100.00
3524;BME280;1776;53.330;11.498;2024-02-21T01:39:43;21532.22;;;-147.39;100.00
3524;BME280;1776;53.330;11.498;2024-02-21T01:42:08;21479.41;;;-147.39;100.00
3524;BME280;1776;53.330;11.498;2024-02-21T01:44:34;21483.47;;;-147.39;100.00
3524;BME280;1776;53.330;11.498;2024-02-21T01:46:59;21459.09;;;-147.39;100.00
3524;BME280;1776;53.330;11.498;2024-02-21T01:49:25;21501.75;;;-147.39;100.00
3524;BME280;1776;53.330;11.498;2024-02-21T01:51:50;21418.44;;;-147.39;100.00
3524;BME280;1776;53.330;11.498;2024-02-21T01:54:17;21440.78;;;-147.39;100.00
3524;BME280;1776;53.330;11.498;2024-02-21T01:56:44;21402.19;;;-147.39;100.00
3524;BME280;1776;53.330;11.498;2024-02-21T01:59:10;21394.06;;;-147.39;100.00
3524;BME280;1776;53.330;11.498;2024-02-21T02:01:36;21375.78;;;-147.39;100.00
3524;BME280;1776;53.330;11.498;2024-02-21T02:04:02;21448.94;;;-147.39;100.00
3524;BME280;1776;53.330;11.498;2024-02-21T02:06:27;21416.41;;;-147.39;100.00
3524;BME280;1776;53.330;11.498;2024-02-21T02:08:53;21367.66;;;-147.39;100.00
3524;BME280;1776;53.330;11.498;2024-02-21T02:11:19;21377.81;;;-147.39;100.00
3524;BME280;1776;53.330;11.498;2024-02-21T02:13:44;21353.44;;;-147.39;100.00
3524;BME280;1776;53.330;11.498;2024-02-21T02:16:10;21369.69;;;-147.39;100.00
3524;BME280;1776;53.330;11.498;2024-02-21T02:18:35;21404.22;;;-147.39;100.00
3524;BME280;1776;53.330;11.498;2024-02-21T02:21:00;21357.50;;;-147.39;100.00
3524;BME280;1776;53.330;11.498;2024-02-21T02:23:27;21320.91;;;-147.39;100.00
3524;BME280;1776;53.330;11.498;2024-02-21T02:25:53;21310.75;;;-147.39;100.00
3524;BME280;1776;53.330;11.498;2024-02-21T02:28:18;21316.84;;;-147.39;100.00
3524;BME280;1776;53.330;11.498;2024-02-21T02:30:44;21302.63;;;-147.39;100.00
3524;BME280;1776;53.330;11.498;2024-02-21T02:33:09;21300.59;;;-147.39;100.00
3524;BME280;1776;53.330;11.498;2024-02-21T02:35:35;21320.91;;;-147.39;100.00
3524;BME280;1776;53.330;11.498;2024-02-21T02:38:02;21209.16;;;-147.39;100.00
3524;BME280;1776;53.330;11.498;2024-02-21T02:40:27;21294.50;;;-147.39;100.00
3524;BME280;1776;53.330;11.498;2024-02-21T02:42:53;21264.03;;;-147.39;100.00
3524;BME280;1776;53.330;11.498;2024-02-21T02:45:21;21217.28;;;-147.39;100.00
3524;BME280;1776;53.330;11.498;2024-02-21T02:47:47;21217.28;;;-147.39;100.00
3524;BME280;1776;53.330;11.498;2024-02-21T02:50:13;21182.75;;;-147.39;100.00
3524;BME280;1776;53.330;11.498;2024-02-21T02:52:38;21184.78;;;-147.39;100.00
3524;BME280;1776;53.330;11.498;2024-02-21T02:55:04;21162.44;;;-147.39;100.00
3524;BME280;1776;53.330;11.498;2024-02-21T02:57:30;21148.22;;;-147.39;100.00
3524;BME280;1776;53.330;11.498;2024-02-21T02:59:55;21125.88;;;-147.39;100.00
3524;BME280;1776;53.330;11.498;2024-02-21T03:02:20;20711.41;;;-147.39;100.00
3524;BME280;1776;53.330;11.498;2024-02-21T03:04:46;21085.22;;;-147.39;100.00
3524;BME280;1776;53.330;11.498;2024-02-21T03:07:11;21079.13;;;-147.39;100.00
3524;BME280;1776;53.330;11.498;2024-02-21T03:09:40;21044.59;;;-147.39;100.00
3524;BME280;1776;53.330;11.498;2024-02-21T03:12:06;21036.47;;;-147.39;100.00
3524;BME280;1776;53.330;11.498;2024-02-21T03:14:32;20995.84;;;-147.39;100.00
3524;BME280;1776;53.330;11.498;2024-02-21T03:17:00;20991.78;;;-147.39;100.00
3524;BME280;1776;53.330;11.498;2024-02-21T03:19:25;20934.88;;;-147.39;100.00
3524;BME280;1776;53.330;11.498;2024-02-21T03:21:53;20951.16;;;-147.39;100.00
3524;BME280;1776;53.330;11.498;2024-02-21T03:24:19;20916.59;;;-147.39;100.00
3524;BME280;1776;53.330;11.498;2024-02-21T03:26:45;20890.19;;;-147.39;100.00
3524;BME280;1776;53.330;11.498;2024-02-21T03:29:16;20869.88;;;-147.39;100.00
3524;BME280;1776;53.330;11.498;2024-02-21T03:31:42;20938.97;;;-147.39;100.00
3524;BME280;1776;53.330;11.498;2024-02-21T03:34:10;20894.25;;;-147.39;100.00
3524;BME280;1776;53.330;11.498;2024-02-21T03:36:36;20890.19;;;-147.39;100.00
3524;BME280;1776;53.330;11.498;2024-02-21T03:39:01;20888.16;;;-147.39;100.00
3524;BME280;1776;53.330;11.498;2024-02-21T03:41:27;20963.34;;;-147.39;100.00
3524;BME280;1776;53.330;11.498;2024-02-21T03:43:52;20943.03;;;-147.39;100.00
3524;BME280;1776;53.330;11.498;2024-02-21T03:46:17;20977.56;;;-147.39;100.00
3524;BME280;1776;53.330;11.498;2024-02-21T03:48:43;20924.72;;;-147.39;100.00
3524;BME280;1776;53.330;11.498;2024-02-21T03:51:08;20943.03;;;-147.39;100.00
3524;BME280;1776;53.330;11.498;2024-02-21T03:53:33;20979.59;;;-147.39;100.00
3524;BME280;1776;53.330;11.498;2024-02-21T03:56:02;21001.94;;;-147.39;100.00
3524;BME280;1776;53.330;11.498;2024-02-21T03:58:32;20977.56;;;-147.39;100.00
3524;BME280;1776;53.330;11.498;2024-02-21T04:01:00;20997.88;;;-147.39;100.00
3524;BME280;1776;53.330;11.498;2024-02-21T04:03:25;20973.50;;;-147.39;100.00
3524;BME280;1776;53.330;11.498;2024-02-21T04:05:50;20963.34;;;-147.39;100.00
3524;BME280;1776;53.330;11.498;2024-02-21T04:08:15;20979.59;;;-147.39;100.00
3524;BME280;1776;53.330;11.498;2024-02-21T04:10:41;21034.44;;;-147.39;100.00
3524;BME280;1776;53.330;11.498;2024-02-21T04:13:06;21028.34;;;-147.39;100.00
3524;BME280;1776;53.330;11.498;2024-02-21T04:15:32;21020.22;;;-147.39;100.00
3524;BME280;1776;53.330;11.498;2024-02-21T04:17:57;21056.78;;;-147.39;100.00
3524;BME280;1776;53.330;11.498;2024-02-21T04:20:22;20997.88;;;-147.39;100.00
3524;BME280;1776;53.330;11.498;2024-02-21T04:22:48;21008.03;;;-147.39;100.00
3524;BME280;1776;53.330;11.498;2024-02-21T04:25:13;21036.47;;;-147.39;100.00
3524;BME280;1776;53.330;11.498;2024-02-21T04:27:39;21099.47;;;-147.39;100.00
3524;BME280;1776;53.330;11.498;2024-02-21T04:30:05;21095.41;;;-147.39;100.00
3524;BME280;1776;53.330;11.498;2024-02-21T04:32:30;21073.03;;;-147.39;100.00
3524;BME280;1776;53.330;11.498;2024-02-21T04:34:55;21054.75;;;-147.39;100.00
3524;BME280;1776;53.330;11.498;2024-02-21T04:37:21;21073.03;;;-147.39;100.00
3524;BME280;1776;53.330;11.498;2024-02-21T04:39:46;21064.91;;;-147.39;100.00
3524;BME280;1776;53.330;11.498;2024-02-21T04:42:11;21085.22;;;-147.39;100.00
3524;BME280;1776;53.330;11.498;2024-02-21T04:44:37;21087.25;;;-147.39;100.00
3524;BME280;1776;53.330;11.498;2024-02-21T04:47:03;21131.97;;;-147.39;100.00
3524;BME280;1776;53.330;11.498;2024-02-21T04:49:29;21134.00;;;-147.39;100.00
3524;BME280;1776;53.330;11.498;2024-02-21T04:51:54;21073.03;;;-147.39;100.00
3524;BME280;1776;53.330;11.498;2024-02-21T04:54:19;21152.28;;;-147.39;100.00
3524;BME280;1776;53.330;11.498;2024-02-21T04:56:45;21091.31;;;-147.39;100.00
3524;BME280;1776;53.330;11.498;2024-02-21T04:59:10;21123.84;;;-147.39;100.00
3524;BME280;1776;53.330;11.498;2024-02-21T05:01:35;21081.16;;;-147.39;100.00
3524;BME280;1776;53.330;11.498;2024-02-21T05:04:00;21180.72;;;-147.39;100.00
3524;BME280;1776;53.330;11.498;2024-02-21T05:06:26;21170.56;;;-147.39;100.00
3524;BME280;1776;53.330;11.498;2024-02-21T05:08:51;21119.78;;;-147.39;100.00
3524;BME280;1776;53.330;11.498;2024-02-21T05:11:16;21150.25;;;-147.39;100.00
3524;BME280;1776;53.330;11.498;2024-02-21T05:13:42;21178.69;;;-147.39;100.00
3524;BME280;1776;53.330;11.498;2024-02-21T05:16:07;21178.69;;;-147.39;100.00
3524;BME280;1776;53.330;11.498;2024-02-21T05:18:33;21170.56;;;-147.39;100.00
3524;BME280;1776;53.330;11.498;2024-02-21T05:20:59;21150.25;;;-147.39;100.00
3524;BME280;1776;53.330;11.498;2024-02-21T05:23:24;21182.75;;;-147.39;100.00
3524;BME280;1776;53.330;11.498;2024-02-21T05:25:49;21148.22;;;-147.39;100.00
3524;BME280;1776;53.330;11.498;2024-02-21T05:28:14;21154.31;;;-147.39;100.00
3524;BME280;1776;53.330;11.498;2024-02-21T05:30:40;21184.78;;;-147.39;100.00
3524;BME280;1776;53.330;11.498;2024-02-21T05:33:06;21142.13;;;-147.39;100.00
3524;BME280;1776;53.330;11.498;2024-02-21T05:35:32;21186.81;;;-147.39;100.00
3524;BME280;1776;53.330;11.498;2024-02-21T05:37:57;21150.25;;;-147.39;100.00
3524;BME280;1776;53.330;11.498;2024-02-21T05:40:23;21113.69;;;-147.39;100.00
3524;BME280;1776;53.330;11.498;2024-02-21T05:42:48;21085.22;;;-147.39;100.00
3524;BME280;1776;53.330;11.498;2024-02-21T05:45:14;21087.25;;;-147.39;100.00
3524;BME280;1776;53.330;11.498;2024-02-21T05:47:41;21101.50;;;-147.39;100.00
3524;BME280;1776;53.330;11.498;2024-02-21T05:50:06;21125.88;;;-147.39;100.00
3524;BME280;1776;53.330;11.498;2024-02-21T05:52:31;21123.84;;;-147.39;100.00
3524;BME280;1776;53.330;11.498;2024-02-21T05:54:57;21097.44;;;-147.39;100.00
3524;BME280;1776;53.330;11.498;2024-02-21T05:57:22;21113.69;;;-147.39;100.00
3524;BME280;1776;53.330;11.498;2024-02-21T05:59:47;21111.66;;;-147.39;100.00
3524;BME280;1776;53.330;11.498;2024-02-21T06:02:12;21127.91;;;-147.39;100.00
3524;BME280;1776;53.330;11.498;2024-02-21T06:04:38;21103.53;;;-147.39;100.00
3524;BME280;1776;53.330;11.498;2024-02-21T06:07:04;21113.69;;;-147.39;100.00
3524;BME280;1776;53.330;11.498;2024-02-21T06:09:30;21105.56;;;-147.39;100.00
3524;BME280;1776;53.330;11.498;2024-02-21T06:11:55;21060.84;;;-147.39;100.00
3524;BME280;1776;53.330;11.498;2024-02-21T06:14:20;21113.69;;;-147.39;100.00
3524;BME280;1776;53.330;11.498;2024-02-21T06:16:46;21046.63;;;-147.39;100.00
3524;BME280;1776;53.330;11.498;2024-02-21T06:19:11;21085.22;;;-147.39;100.00
3524;BME280;1776;53.330;11.498;2024-02-21T06:21:36;21056.78;;;-147.39;100.00
3524;BME280;1776;53.330;11.498;2024-02-21T06:24:02;21036.47;;;-147.39;100.00
3524;BME280;1776;53.330;11.498;2024-02-21T06:26:27;21054.75;;;-147.39;100.00
3524;BME280;1776;53.330;11.498;2024-02-21T06:28:53;21003.97;;;-147.39;100.00
3524;BME280;1776;53.330;11.498;2024-02-21T06:31:18;20985.69;;;-147.39;100.00
3524;BME280;1776;53.330;11.498;2024-02-21T06:33:43;21014.13;;;-147.39;100.00
3524;BME280;1776;53.330;11.498;2024-02-21T06:36:08;20967.41;;;-147.39;100.00
3524;BME280;1776;53.330;11.498;2024-02-21T06:38:34;20959.28;;;-147.39;100.00
3524;BME280;1776;53.330;11.498;2024-02-21T06:40:59;20963.34;;;-147.39;100.00
3524;BME280;1776;53.330;11.498;2024-02-21T06:43:25;20977.56;;;-147.39;100.00
3524;BME280;1776;53.330;11.498;2024-02-21T06:45:51;20975.53;;;-147.39;100.00
3524;BME280;1776;53.330;11.498;2024-02-21T06:48:17;20955.22;;;-147.39;100.00
3524;BME280;1776;53.330;11.498;2024-02-21T06:50:43;20943.03;;;-147.39;100.00
3524;BME280;1776;53.330;11.498;2024-02-21T06:53:08;20971.47;;;-147.39;100.00
3524;BME280;1776;53.330;11.498;2024-02-21T06:55:33;20973.50;;;-147.39;100.00
3524;BME280;1776;53.330;11.498;2024-02-21T06:57:59;20936.91;;;-147.39;100.00
3524;BME280;1776;53.330;11.498;2024-02-21T07:00:24;20941.00;;;-147.39;100.00
3524;BME280;1776;53.330;11.498;2024-02-21T07:02:50;20900.34;;;-147.39;100.00
3524;BME280;1776;53.330;11.498;2024-02-21T07:05:16;20945.06;;;-147.39;100.00
3524;BME280;1776;53.330;11.498;2024-02-21T07:07:41;20943.03;;;-147.39;100.00
3524;BME280;1776;53.330;11.498;2024-02-21T07:10:06;20930.81;;;-147.39;100.00
3524;BME280;1776;53.330;11.498;2024-02-21T07:12:32;20894.25;;;-147.39;100.00
3524;BME280;1776;53.330;11.498;2024-02-21T07:14:58;20894.25;;;-147.39;100.00
3524;BME280;1776;53.330;11.498;2024-02-21T07:17:23;20884.09;;;-147.39;100.00
3524;BME280;1776;53.330;11.498;2024-02-21T07:19:49;20904.41;;;-147.39;100.00
3524;BME280;1776;53.330;11.498;2024-02-21T07:22:14;20857.69;;;-147.39;100.00
3524;BME280;1776;53.330;11.498;2024-02-21T07:24:39;20831.28;;;-147.39;100.00
3524;BME280;1776;53.330;11.498;2024-02-21T07:27:05;20851.59;;;-147.39;100.00
3524;BME280;1776;53.330;11.498;2024-02-21T07:29:30;20813.00;;;-147.39;100.00
3524;BME280;1776;53.330;11.498;2024-02-21T07:31:56;20743.94;;;-147.39;100.00
3524;BME280;1776;53.330;11.498;2024-02-21T07:34:21;20782.53;;;-147.39;100.00
3524;BME280;1776;53.330;11.498;2024-02-21T07:36:46;20707.34;;;-147.39;100.00
3524;BME280;1776;53.330;11.498;2024-02-21T07:39:12;20774.41;;;-147.39;100.00
3524;BME280;1776;53.330;11.498;2024-02-21T07:41:37;20782.53;;;-147.39;100.00
3524;BME280;1776;53.330;11.498;2024-02-21T07:44:04;20782.53;;;-147.39;100.00
3524;BME280;1776;53.330;11.498;2024-02-21T07:46:30;20750.03;;;-147.39;100.00
3524;BME280;1776;53.330;11.498;2024-02-21T07:48:55;20750.03;;;-147.39;100.00
3524;BME280;1776;53.330;11.498;2024-02-21T07:51:20;20717.50;;;-147.39;100.00
3524;BME280;1776;53.330;11.498;2024-02-21T07:53:46;20687.03;;;-147.39;100.00
3524;BME280;1776;53.330;11.498;2024-02-21T07:56:12;20674.84;;;-147.39;100.00
3524;BME280;1776;53.330;11.498;2024-02-21T07:58:38;20617.97;;;-147.39;100.00
3524;BME280;1776;53.330;11.498;2024-02-21T08:01:04;20534.69;;;-147.39;100.00
3524;BME280;1776;53.330;11.498;2024-02-21T08:03:29;20565.16;;;-147.39;100.00
3524;BME280;1776;53.330;11.498;2024-02-21T08:05:54;20520.47;;;-147.39;100.00
3524;BME280;1776;53.330;11.498;2024-02-21T08:08:20;20510.31;;;-147.39;100.00
3524;BME280;1776;53.330;11.498;2024-02-21T08:10:47;20467.66;;;-147.39;100.00
3524;BME280;1776;53.330;11.498;2024-02-21T08:13:12;20437.19;;;-147.39;100.00
3524;BME280;1776;53.330;11.498;2024-02-21T08:15:38;20431.09;;;-147.39;100.00
3524;BME280;1776;53.330;11.498;2024-02-21T08:18:05;20414.84;;;-147.39;100.00
3524;BME280;1776;53.330;11.498;2024-02-21T08:20:30;20378.25;;;-147.39;100.00
3524;BME280;1776;53.330;11.498;2024-02-21T08:22:55;20313.25;;;-147.39;100.00
3524;BME280;1776;53.330;11.498;2024-02-21T08:25:21;20292.94;;;-147.39;100.00
3524;BME280;1776;53.330;11.498;2024-02-21T08:27:46;20266.53;;;-147.39;100.00
3524;BME280;1776;53.330;11.498;2024-02-21T08:30:11;20254.34;;;-147.39;100.00
3524;BME280;1776;53.330;11.498;2024-02-21T08:32:37;20201.53;;;-147.39;100.00
3524;BME280;1776;53.330;11.498;2024-02-21T08:35:02;20278.72;;;-147.39;100.00
3524;BME280;1776;53.330;11.498;2024-02-21T08:37:28;20154.81;;;-147.39;100.00
3524;BME280;1776;53.330;11.498;2024-02-21T08:39:53;20108.09;;;-147.39;100.00
3524;BME280;1776;53.330;11.498;2024-02-21T08:42:19;20093.88;;;-147.39;100.00
3524;BME280;1776;53.330;11.498;2024-02-21T08:44:44;20085.75;;;-147.39;100.00
3524;BME280;1776;53.330;11.498;2024-02-21T08:47:10;20024.84;;;-147.39;100.00
3524;BME280;1776;53.330;11.498;2024-02-21T08:49:36;20004.53;;;-147.39;100.00
3524;BME280;1776;53.330;11.498;2024-02-21T08:52:02;20010.63;;;-147.39;100.00
3524;BME280;1776;53.330;11.498;2024-02-21T08:54:27;20030.94;;;-147.39;100.00
3524;BME280;1776;53.330;11.498;2024-02-21T08:56:54;19984.22;;;-147.39;100.00
3524;BME280;1776;53.330;11.498;2024-02-21T08:59:19;20030.94;;;-147.39;100.00
3524;BME280;1776;53.330;11.498;2024-02-21T09:01:44;20032.97;;;-147.39;100.00
3524;BME280;1776;53.330;11.498;2024-02-21T09:04:09;20102.00;;;-147.39;100.00
3524;BME280;1776;53.330;11.498;2024-02-21T09:06:35;20099.97;;;-147.39;100.00
3524;BME280;1776;53.330;11.498;2024-02-21T09:09:04;20134.50;;;-147.39;100.00
3524;BME280;1776;53.330;11.498;2024-02-21T09:11:29;20087.78;;;-147.39;100.00
3524;BME280;1776;53.330;11.498;2024-02-21T09:13:54;20175.13;;;-147.39;100.00
3524;BME280;1776;53.330;11.498;2024-02-21T09:16:20;20191.38;;;-147.39;100.00
3524;BME280;1776;53.330;11.498;2024-02-21T09:18:45;20175.13;;;-147.39;100.00
3524;BME280;1776;53.330;11.498;2024-02-21T09:21:11;20207.63;;;-147.39;100.00
3524;BME280;1776;53.330;11.498;2024-02-21T09:23:37;20195.44;;;-147.39;100.00
3524;BME280;1776;53.330;11.498;2024-02-21T09:26:02;20270.59;;;-147.39;100.00
3524;BME280;1776;53.330;11.498;2024-02-21T09:28:29;20254.34;;;-147.39;100.00
3524;BME280;1776;53.330;11.498;2024-02-21T09:30:54;20276.69;;;-147.39;100.00
3524;BME280;1776;53.330;11.498;2024-02-21T09:33:20;20307.16;;;-147.39;100.00
3524;BME280;1776;53.330;11.498;2024-02-21T09:35:45;20292.94;;;-147.39;100.00
3524;BME280;1776;53.330;11.498;2024-02-21T09:38:10;20297.00;;;-147.39;100.00
3524;BME280;1776;53.330;11.498;2024-02-21T09:40:35;20372.16;;;-147.39;100.00
3524;BME280;1776;53.330;11.498;2024-02-21T09:43:04;20410.78;;;-147.39;100.00
3524;BME280;1776;53.330;11.498;2024-02-21T09:45:33;20376.25;;;-147.39;100.00
3524;BME280;1776;53.330;11.498;2024-02-21T09:50:43;20443.28;;;-147.39;100.00
3524;BME280;1776;53.330;11.498;2024-02-21T09:53:12;20500.16;;;-147.39;100.00
3524;BME280;1776;53.330;11.498;2024-02-21T09:55:38;20498.13;;;-147.39;100.00
3524;BME280;1776;53.330;11.498;2024-02-21T09:58:07;20587.50;;;-147.39;100.00
3524;BME280;1776;53.330;11.498;2024-02-21T10:00:32;20571.25;;;-147.39;100.00
3524;BME280;1776;53.330;11.498;2024-02-21T10:02:59;20575.31;;;-147.39;100.00
3524;BME280;1776;53.330;11.498;2024-02-21T10:05:24;20585.47;;;-147.39;100.00
3524;BME280;1776;53.330;11.498;2024-02-21T10:07:51;20632.19;;;-147.39;100.00
3524;BME280;1776;53.330;11.498;2024-02-21T10:10:16;20601.72;;;-147.39;100.00
3524;BME280;1776;53.330;11.498;2024-02-21T10:12:51;20705.31;;;-147.39;100.00
3524;BME280;1776;53.330;11.498;2024-02-21T10:15:20;20701.25;;;-147.39;100.00
3524;BME280;1776;53.330;11.498;2024-02-21T10:17:46;20695.16;;;-147.39;100.00
3524;BME280;1776;53.330;11.498;2024-02-21T10:20:12;20778.47;;;-147.39;100.00
3524;BME280;1776;53.330;11.498;2024-02-21T10:22:39;20827.22;;;-147.39;99.73
3524;BME280;1776;53.330;11.498;2024-02-21T10:25:12;20894.25;;;-147.39;99.85
3524;BME280;1776;53.330;11.498;2024-02-21T10:27:39;20920.66;;;-147.39;99.47
3524;BME280;1776;53.330;11.498;2024-02-21T10:30:12;20967.41;;;-147.39;98.98
3524;BME280;1776;53.330;11.498;2024-02-21T10:32:51;21006.00;;;-147.39;99.01
3524;BME280;1776;53.330;11.498;2024-02-21T10:35:31;20969.44;;;-147.39;99.23
3524;BME280;1776;53.330;11.498;2024-02-21T10:37:57;21016.16;;;-147.39;98.91
3524;BME280;1776;53.330;11.498;2024-02-21T10:40:27;21018.19;;;-147.39;98.83
3524;BME280;1776;53.330;11.498;2024-02-21T10:42:56;21075.06;;;-147.39;98.23
3524;BME280;1776;53.330;11.498;2024-02-21T10:45:36;21016.16;;;-147.39;98.40
3524;BME280;1776;53.330;11.498;2024-02-21T10:48:15;21109.63;;;-147.39;98.58
3524;BME280;1776;53.330;11.498;2024-02-21T10:51:18;21150.25;;;-147.39;97.44
3524;BME280;1776;53.330;11.498;2024-02-21T10:54:36;21160.41;;;-147.39;97.07
3524;BME280;1776;53.330;11.498;2024-02-21T10:56:31;21213.22;;;-147.39;96.35
3524;BME280;1776;53.330;11.498;2024-02-21T10:59:01;21268.09;;;-147.39;96.69
3524;BME280;1776;53.330;11.498;2024-02-21T11:01:26;21239.66;;;-147.39;97.09
3524;BME280;1776;53.330;11.498;2024-02-21T11:03:55;21184.78;;;-147.39;97.56
3524;BME280;1776;53.330;11.498;2024-02-21T11:06:21;21182.75;;;-147.39;98.00
3524;BME280;1776;53.330;11.498;2024-02-21T11:08:47;21089.28;;;-147.39;98.48
3524;BME280;1776;53.330;11.498;2024-02-21T11:11:14;21144.16;;;-147.39;99.08
3524;BME280;1776;53.330;11.498;2024-02-21T11:13:42;21103.53;;;-147.39;98.91
3524;BME280;1776;53.330;11.498;2024-02-21T11:16:20;21077.09;;;-147.39;99.15
3524;BME280;1776;53.330;11.498;2024-02-21T11:18:46;21083.19;;;-147.39;98.94
3524;BME280;1776;53.330;11.498;2024-02-21T11:21:11;21119.78;;;-147.39;98.87
3524;BME280;1776;53.330;11.498;2024-02-21T11:23:36;21184.78;;;-147.39;98.25
3524;BME280;1776;53.330;11.498;2024-02-21T11:26:05;21083.19;;;-147.39;98.80
3524;BME280;1776;53.330;11.498;2024-02-21T11:28:31;21123.84;;;-147.39;98.71
3524;BME280;1776;53.330;11.498;2024-02-21T11:31:07;21111.66;;;-147.39;98.81
3524;BME280;1776;53.330;11.498;2024-02-21T11:33:34;21121.81;;;-147.39;99.06
3524;BME280;1776;53.330;11.498;2024-02-21T11:35:59;21129.94;;;-147.39;98.79
3524;BME280;1776;53.330;11.498;2024-02-21T11:38:24;21117.75;;;-147.39;98.48
3524;BME280;1776;53.330;11.498;2024-02-21T11:40:50;21158.38;;;-147.39;98.42
3524;BME280;1776;53.330;11.498;2024-02-21T11:43:15;21117.75;;;-147.39;98.23
3524;BME280;1776;53.330;11.498;2024-02-21T11:45:41;21172.59;;;-147.39;97.94
3524;BME280;1776;53.330;11.498;2024-02-21T11:48:07;21190.88;;;-147.39;97.45
3524;BME280;1776;53.330;11.498;2024-02-21T11:50:34;21231.53;;;-147.39;97.81
3524;BME280;1776;53.330;11.498;2024-02-21T11:53:00;21205.09;;;-147.39;97.52
3524;BME280;1776;53.330;11.498;2024-02-21T11:55:25;21223.38;;;-147.39;97.37
3524;BME280;1776;53.330;11.498;2024-02-21T11:57:50;21176.66;;;-147.39;97.63
3524;BME280;1776;53.330;11.498;2024-02-21T12:00:18;21170.56;;;-147.39;98.15
3524;BME280;1776;53.330;11.498;2024-02-21T12:02:47;21211.19;;;-147.39;97.99
3524;BME280;1776;53.330;11.498;2024-02-21T12:05:13;21217.28;;;-147.39;97.69
3524;BME280;1776;53.330;11.498;2024-02-21T12:07:39;21229.50;;;-147.39;97.27
3524;BME280;1776;53.330;11.498;2024-02-21T12:10:11;21316.84;;;-147.39;97.33
3524;BME280;1776;53.330;11.498;2024-02-21T12:12:38;21229.50;;;-147.39;97.08
3524;BME280;1776;53.330;11.498;2024-02-21T12:15:04;21239.66;;;-147.39;96.90
3524;BME280;1776;53.330;11.498;2024-02-21T12:17:33;21304.66;;;-147.39;96.69
3524;BME280;1776;53.330;11.498;2024-02-21T12:20:00;21255.91;;;-147.39;96.50
3524;BME280;1776;53.330;11.498;2024-02-21T12:22:25;21312.78;;;-147.39;96.15
3524;BME280;1776;53.330;11.498;2024-02-21T12:24:52;21333.09;;;-147.39;95.62
3524;BME280;1776;53.330;11.498;2024-02-21T12:27:17;21339.19;;;-147.39;95.83
3524;BME280;1776;53.330;11.498;2024-02-21T12:29:42;21343.28;;;-147.39;95.34
3524;BME280;1776;53.330;11.498;2024-02-21T12:32:08;21450.97;;;-147.39;94.53
3524;BME280;1776;53.330;11.498;2024-02-21T12:34:33;21463.16;;;-147.39;93.92
3524;BME280;1776;53.330;11.498;2024-02-21T12:36:59;21467.22;;;-147.39;93.60
3524;BME280;1776;53.330;11.498;2024-02-21T12:39:24;21570.84;;;-147.39;93.22